Time;durP1;ratioP1;P1;durP2;ratioP2;P2;SDS_P1;SDS_P2;PMS_P1;PMS_P2;Temp;Humidity;BMP_temperature;BMP_pressure;BME280_temperature;BME280_humidity;BME280_pressure;Samples;Min_cycle;Max_cycle;Signal;HPM_P1;HPM_P2
2023/01/20 00:01:03;;;;;;;35.83;31.83;;;;;;;;;;4976992;28;20282;-87
2023/01/20 00:03:28;;;;;;;35.77;31.60;;;;;;;;;;4955555;28;20251;-86
2023/01/20 00:05:54;;;;;;;38.73;33.63;;;;;;;;;;4997037;28;20248;-86
2023/01/20 00:08:19;;;;;;;37.30;30.93;;;;;;;;;;4996629;28;20235;-86
2023/01/20 00:10:47;;;;;;;39.20;32.37;;;;;;;;;;4954860;28;20230;-87
2023/01/20 00:13:15;;;;;;;37.43;31.63;;;;;;;;;;4994433;28;20229;-89
2023/01/20 00:15:40;;;;;;;38.67;32.73;;;;;;;;;;5004515;28;20233;-87
2023/01/20 00:18:06;;;;;;;38.17;32.57;;;;;;;;;;4985816;28;20240;-89
2023/01/20 00:20:36;;;;;;;41.80;33.97;;;;;;;;;;4967248;28;20232;-88
2023/01/20 00:23:05;;;;;;;37.10;32.40;;;;;;;;;;4952870;28;20241;-88
2023/01/20 00:25:32;;;;;;;38.90;31.67;;;;;;;;;;4961736;29;20688;-89
2023/01/20 00:27:58;;;;;;;39.70;33.77;;;;;;;;;;4953743;28;20237;-88
2023/01/20 00:30:23;;;;;;;37.73;33.00;;;;;;;;;;4982846;28;20361;-89
2023/01/20 00:32:50;;;;;;;35.70;31.13;;;;;;;;;;4942289;28;20262;-88
2023/01/20 00:35:19;;;;;;;41.87;33.17;;;;;;;;;;4956309;28;20231;-88
2023/01/20 00:37:47;;;;;;;40.07;33.03;;;;;;;;;;4950663;28;20285;-88
2023/01/20 00:40:16;;;;;;;36.17;32.13;;;;;;;;;;4979947;28;20214;-88
2023/01/20 00:42:42;;;;;;;33.77;30.13;;;;;;;;;;4977385;28;20237;-90
2023/01/20 00:45:10;;;;;;;38.17;32.33;;;;;;;;;;4947381;28;20251;-90
2023/01/20 00:47:36;;;;;;;37.30;30.50;;;;;;;;;;4943028;29;20822;-89
2023/01/20 00:50:01;;;;;;;41.33;33.63;;;;;;;;;;4940361;28;20214;-89
2023/01/20 00:52:27;;;;;;;43.23;34.57;;;;;;;;;;4960426;28;20233;-88
2023/01/20 00:54:52;;;;;;;39.67;31.50;;;;;;;;;;4944975;28;20745;-87
2023/01/20 00:57:18;;;;;;;38.83;32.93;;;;;;;;;;4987681;28;20233;-86
2023/01/20 00:59:44;;;;;;;45.57;33.73;;;;;;;;;;4924413;29;20595;-89
2023/01/20 01:02:10;;;;;;;42.73;33.10;;;;;;;;;;4962244;28;20237;-88
2023/01/20 01:04:37;;;;;;;39.53;31.33;;;;;;;;;;4972471;28;20249;-87
2023/01/20 01:07:03;;;;;;;40.97;33.80;;;;;;;;;;4960845;28;20230;-86
2023/01/20 01:09:29;;;;;;;39.37;32.87;;;;;;;;;;4960891;28;20260;-89
2023/01/20 01:11:56;;;;;;;41.93;33.37;;;;;;;;;;4974366;28;20611;-89
2023/01/20 01:14:25;;;;;;;39.33;32.77;;;;;;;;;;4976265;28;20221;-88
2023/01/20 01:16:52;;;;;;;42.47;33.03;;;;;;;;;;4992036;28;20222;-87
2023/01/20 01:19:18;;;;;;;39.93;32.63;;;;;;;;;;4974642;28;20225;-88
2023/01/20 01:21:51;;;;;;;38.13;31.30;;;;;;;;;;4954927;28;20238;-89
2023/01/20 01:24:19;;;;;;;44.90;33.90;;;;;;;;;;4975263;28;20222;-87
2023/01/20 01:26:44;;;;;;;40.77;31.53;;;;;;;;;;4970576;28;20581;-87
2023/01/20 01:29:10;;;;;;;42.80;33.80;;;;;;;;;;4959503;28;20237;-88
2023/01/20 01:31:37;;;;;;;40.40;31.23;;;;;;;;;;4948037;28;20397;-85
2023/01/20 01:34:03;;;;;;;44.33;33.87;;;;;;;;;;4997232;28;20226;-87
2023/01/20 01:36:28;;;;;;;38.27;32.17;;;;;;;;;;4999152;28;20218;-90
2023/01/20 01:38:56;;;;;;;44.33;33.33;;;;;;;;;;4981943;28;20226;-89
2023/01/20 01:41:22;;;;;;;36.70;32.37;;;;;;;;;;4997564;28;20234;-88
2023/01/20 01:44:09;;;;;;;41.37;32.67;;;;;;;;;;4982450;28;20226;-87
2023/01/20 01:46:35;;;;;;;39.00;31.37;;;;;;;;;;4977712;28;20972;-87
2023/01/20 01:49:05;;;;;;;43.87;33.23;;;;;;;;;;4964612;28;20214;-84
2023/01/20 01:51:34;;;;;;;40.30;32.27;;;;;;;;;;4982068;28;20310;-88
2023/01/20 01:54:20;;;;;;;43.47;33.43;;;;;;;;;;4980246;28;20259;-89
2023/01/20 01:56:46;;;;;;;38.60;32.33;;;;;;;;;;4964893;28;20261;-89
2023/01/20 01:59:12;;;;;;;41.80;31.50;;;;;;;;;;4980177;28;20224;-89
2023/01/20 02:01:41;;;;;;;41.13;32.57;;;;;;;;;;4966399;28;20266;-88
2023/01/20 02:04:11;;;;;;;39.23;30.83;;;;;;;;;;4931016;28;20221;-89
2023/01/20 02:06:41;;;;;;;42.83;32.83;;;;;;;;;;4965411;28;20241;-89
2023/01/20 02:09:09;;;;;;;40.33;30.73;;;;;;;;;;4981769;28;20638;-89
2023/01/20 02:11:40;;;;;;;38.83;31.40;;;;;;;;;;4971051;28;20230;-87
2023/01/20 02:14:06;;;;;;;39.23;31.47;;;;;;;;;;4947875;28;20692;-88
2023/01/20 02:16:57;;;;;;;41.93;32.00;;;;;;;;;;4952871;28;20238;-88
2023/01/20 02:19:38;;;;;;;41.87;31.60;;;;;;;;;;4976915;28;20230;-87
2023/01/20 02:22:38;;;;;;;41.87;32.23;;;;;;;;;;4965000;28;20253;-87
2023/01/20 02:25:14;;;;;;;40.03;30.63;;;;;;;;;;4998485;28;20293;-88
2023/01/20 02:27:50;;;;;;;39.03;30.47;;;;;;;;;;4984385;28;20222;-89
2023/01/20 02:30:37;;;;;;;39.73;32.20;;;;;;;;;;5004459;28;20240;-89
2023/01/20 02:33:14;;;;;;;34.80;29.13;;;;;;;;;;4996404;28;20210;-85
2023/01/20 02:35:48;;;;;;;42.87;30.70;;;;;;;;;;4993663;28;20214;-87
2023/01/20 02:38:53;;;;;;;38.00;30.57;;;;;;;;;;4993934;28;20205;-88
2023/01/20 02:41:36;;;;;;;36.37;28.63;;;;;;;;;;4960350;28;20238;-87
2023/01/20 02:44:25;;;;;;;37.67;29.13;;;;;;;;;;4975204;28;20209;-84
2023/01/20 02:47:12;;;;;;;38.27;29.57;;;;;;;;;;4974089;28;20249;-87
2023/01/20 02:49:39;;;;;;;37.53;28.73;;;;;;;;;;5004857;28;20226;-87
2023/01/20 02:52:09;;;;;;;40.10;31.90;;;;;;;;;;4949377;28;20226;-87
2023/01/20 02:54:38;;;;;;;43.60;30.20;;;;;;;;;;4961597;28;20237;-85
2023/01/20 02:57:05;;;;;;;39.10;29.07;;;;;;;;;;4946461;28;20222;-88
2023/01/20 02:59:32;;;;;;;36.97;28.73;;;;;;;;;;4979158;28;20313;-88
2023/01/20 03:02:03;;;;;;;40.93;28.67;;;;;;;;;;4962113;28;20230;-89
2023/01/20 03:04:37;;;;;;;41.13;29.07;;;;;;;;;;4959381;28;20699;-88
2023/01/20 03:07:03;;;;;;;45.43;31.40;;;;;;;;;;4933636;28;20229;-87
2023/01/20 03:09:46;;;;;;;36.27;28.53;;;;;;;;;;5001958;28;20608;-86
2023/01/20 03:12:21;;;;;;;39.13;27.97;;;;;;;;;;4944671;28;20253;-85
2023/01/20 03:14:48;;;;;;;35.10;30.07;;;;;;;;;;4964556;28;20222;-87
2023/01/20 03:17:19;;;;;;;37.90;30.03;;;;;;;;;;4980326;28;20213;-87
2023/01/20 03:19:45;;;;;;;33.57;27.07;;;;;;;;;;4947679;28;20278;-89
2023/01/20 03:22:13;;;;;;;38.90;28.70;;;;;;;;;;4965129;28;20671;-88
2023/01/20 03:24:39;;;;;;;38.37;29.43;;;;;;;;;;4949592;28;20230;-87
2023/01/20 03:27:04;;;;;;;35.83;30.00;;;;;;;;;;4981048;28;20286;-89
2023/01/20 03:29:31;;;;;;;36.77;28.77;;;;;;;;;;4980893;28;20304;-89
2023/01/20 03:32:00;;;;;;;35.87;28.10;;;;;;;;;;4972035;28;20241;-87
2023/01/20 03:34:30;;;;;;;32.37;27.70;;;;;;;;;;4973922;28;20326;-90
2023/01/20 03:36:56;;;;;;;33.70;27.13;;;;;;;;;;4964792;28;20246;-88
2023/01/20 03:39:21;;;;;;;38.90;27.40;;;;;;;;;;4982313;28;20281;-85
2023/01/20 03:42:10;;;;;;;34.37;28.30;;;;;;;;;;4967250;28;20229;-86
2023/01/20 03:44:51;;;;;;;34.17;26.93;;;;;;;;;;4967297;28;20286;-87
2023/01/20 03:47:28;;;;;;;34.13;26.33;;;;;;;;;;4982219;28;20234;-89
2023/01/20 03:49:55;;;;;;;30.77;25.50;;;;;;;;;;4969800;28;20210;-87
2023/01/20 03:52:49;;;;;;;33.87;25.90;;;;;;;;;;4994703;28;20233;-86
2023/01/20 03:55:19;;;;;;;31.87;25.40;;;;;;;;;;4958511;28;20214;-90
2023/01/20 03:57:57;;;;;;;30.27;24.60;;;;;;;;;;4950193;28;20824;-88
2023/01/20 04:00:24;;;;;;;34.50;24.30;;;;;;;;;;4981336;28;20749;-88
2023/01/20 04:02:50;;;;;;;29.77;25.30;;;;;;;;;;4964476;28;20293;-86
2023/01/20 04:05:18;;;;;;;31.50;25.73;;;;;;;;;;4962263;28;20214;-87
2023/01/20 04:07:46;;;;;;;30.17;23.40;;;;;;;;;;4944694;28;20222;-89
2023/01/20 04:10:15;;;;;;;26.70;23.83;;;;;;;;;;4957929;28;20229;-86
2023/01/20 04:12:40;;;;;;;29.17;23.83;;;;;;;;;;4945952;28;20242;-89
2023/01/20 04:15:06;;;;;;;29.50;23.47;;;;;;;;;;4980139;28;20232;-85
2023/01/20 04:17:32;;;;;;;32.13;25.00;;;;;;;;;;4949135;28;20240;-86
2023/01/20 04:20:04;;;;;;;27.93;23.87;;;;;;;;;;4957658;28;20284;-89
2023/01/20 04:22:35;;;;;;;24.40;20.60;;;;;;;;;;4964575;28;20610;-89
2023/01/20 04:25:21;;;;;;;32.57;23.07;;;;;;;;;;4988887;28;20237;-86
2023/01/20 04:27:46;;;;;;;27.17;21.67;;;;;;;;;;4979815;28;20230;-88
2023/01/20 04:30:13;;;;;;;29.67;22.37;;;;;;;;;;4961107;28;20301;-88
2023/01/20 04:32:38;;;;;;;31.47;23.33;;;;;;;;;;4946657;28;20257;-88
2023/01/20 04:35:17;;;;;;;29.47;23.17;;;;;;;;;;4939006;28;20690;-88
2023/01/20 04:37:43;;;;;;;26.70;21.53;;;;;;;;;;4953838;28;20256;-88
2023/01/20 04:40:11;;;;;;;24.67;20.77;;;;;;;;;;4966504;28;20218;-87
2023/01/20 04:42:37;;;;;;;26.83;21.70;;;;;;;;;;4998007;28;20287;-89
2023/01/20 04:45:05;;;;;;;25.20;20.97;;;;;;;;;;4965810;28;20253;-90
2023/01/20 04:47:32;;;;;;;25.40;20.07;;;;;;;;;;4962284;28;20230;-85
2023/01/20 04:50:00;;;;;;;26.73;21.27;;;;;;;;;;4984301;28;20314;-88
2023/01/20 04:52:30;;;;;;;29.70;21.50;;;;;;;;;;4980852;28;20242;-87
2023/01/20 04:54:55;;;;;;;28.83;21.57;;;;;;;;;;4983272;28;20333;-89
2023/01/20 04:57:23;;;;;;;26.70;21.07;;;;;;;;;;4963020;28;20228;-86
2023/01/20 04:59:49;;;;;;;29.97;21.73;;;;;;;;;;4966131;28;20230;-87
2023/01/20 05:02:14;;;;;;;28.03;20.50;;;;;;;;;;4979820;28;20232;-88
2023/01/20 05:04:40;;;;;;;24.57;20.07;;;;;;;;;;4982453;28;20237;-85
2023/01/20 05:07:05;;;;;;;24.23;19.80;;;;;;;;;;4961725;28;20233;-89
2023/01/20 05:09:33;;;;;;;27.13;21.37;;;;;;;;;;4965640;28;20261;-87
2023/01/20 05:11:59;;;;;;;25.90;20.73;;;;;;;;;;4982243;28;20290;-89
2023/01/20 05:14:24;;;;;;;25.90;20.30;;;;;;;;;;4950019;28;20857;-87
2023/01/20 05:16:50;;;;;;;25.00;19.97;;;;;;;;;;5000518;28;20233;-88
2023/01/20 05:19:15;;;;;;;25.47;19.47;;;;;;;;;;4982416;28;20214;-87
2023/01/20 05:21:43;;;;;;;25.17;20.60;;;;;;;;;;4984856;28;20305;-88
2023/01/20 05:24:09;;;;;;;24.00;19.67;;;;;;;;;;4958690;28;20698;-87
2023/01/20 05:26:34;;;;;;;25.30;20.13;;;;;;;;;;4991786;28;20234;-89
2023/01/20 05:29:01;;;;;;;23.33;19.70;;;;;;;;;;4950812;28;20232;-88
2023/01/20 05:31:27;;;;;;;28.73;22.57;;;;;;;;;;4978105;28;20215;-87
2023/01/20 05:33:56;;;;;;;29.33;22.63;;;;;;;;;;4952627;28;20305;-86
2023/01/20 05:36:23;;;;;;;27.93;21.60;;;;;;;;;;4972302;28;20214;-89
2023/01/20 05:38:51;;;;;;;25.90;21.60;;;;;;;;;;4945695;29;20237;-87
2023/01/20 05:41:17;;;;;;;28.13;21.30;;;;;;;;;;4955238;28;20629;-86
2023/01/20 05:43:44;;;;;;;28.60;21.53;;;;;;;;;;4998646;28;20237;-89
2023/01/20 05:46:15;;;;;;;26.20;21.53;;;;;;;;;;4978946;28;20222;-88
2023/01/20 05:48:42;;;;;;;37.53;29.40;;;;;;;;;;4938271;28;20237;-90
2023/01/20 05:51:08;;;;;;;28.80;22.97;;;;;;;;;;4944977;28;20267;-89
2023/01/20 05:53:36;;;;;;;28.30;22.23;;;;;;;;;;4954508;28;20289;-88
2023/01/20 05:56:03;;;;;;;27.57;22.33;;;;;;;;;;4947410;28;20609;-89
2023/01/20 05:58:28;;;;;;;27.80;21.97;;;;;;;;;;4977468;28;20609;-89
2023/01/20 06:00:54;;;;;;;32.80;22.20;;;;;;;;;;4961370;28;20321;-89
2023/01/20 06:03:19;;;;;;;27.17;21.33;;;;;;;;;;5000431;28;20215;-89
2023/01/20 06:05:48;;;;;;;29.53;23.83;;;;;;;;;;4985800;28;20767;-89
2023/01/20 06:08:13;;;;;;;29.47;23.10;;;;;;;;;;4971259;28;20265;-89
2023/01/20 06:10:39;;;;;;;25.47;19.97;;;;;;;;;;4968373;28;20241;-89
2023/01/20 06:13:05;;;;;;;30.07;22.30;;;;;;;;;;4940641;28;20291;-88
2023/01/20 06:15:31;;;;;;;25.80;20.17;;;;;;;;;;4945159;28;20230;-87
2023/01/20 06:18:04;;;;;;;23.77;19.70;;;;;;;;;;4967133;28;20230;-89
2023/01/20 06:21:07;;;;;;;37.80;27.83;;;;;;;;;;4952374;28;20308;-88
2023/01/20 06:23:35;;;;;;;43.63;29.33;;;;;;;;;;4946439;28;20229;-85
2023/01/20 06:26:40;;;;;;;41.17;29.60;;;;;;;;;;4974634;28;20249;-88
2023/01/20 06:29:27;;;;;;;32.67;24.67;;;;;;;;;;4944884;28;20228;-88
2023/01/20 06:32:13;;;;;;;58.13;38.70;;;;;;;;;;4937620;28;20275;-87
2023/01/20 06:34:46;;;;;;;42.37;30.20;;;;;;;;;;4989603;28;20233;-88
2023/01/20 06:37:25;;;;;;;29.97;24.23;;;;;;;;;;4984350;28;20739;-87
2023/01/20 06:39:54;;;;;;;24.47;21.23;;;;;;;;;;4977195;28;20286;-87
2023/01/20 06:42:19;;;;;;;22.50;19.57;;;;;;;;;;4997191;28;20214;-86
2023/01/20 06:44:45;;;;;;;25.20;21.93;;;;;;;;;;4974927;28;20226;-88
2023/01/20 06:47:15;;;;;;;26.80;20.97;;;;;;;;;;4973785;28;20214;-87
2023/01/20 06:49:43;;;;;;;25.37;20.63;;;;;;;;;;4940490;29;20242;-87
2023/01/20 06:52:09;;;;;;;25.63;20.93;;;;;;;;;;4941194;28;20230;-87
2023/01/20 06:54:37;;;;;;;26.00;20.17;;;;;;;;;;4954739;28;20230;-88
2023/01/20 06:57:05;;;;;;;25.97;19.67;;;;;;;;;;4957867;28;20774;-89
2023/01/20 06:59:32;;;;;;;23.63;21.07;;;;;;;;;;4984585;28;20286;-87
2023/01/20 07:01:58;;;;;;;23.43;20.63;;;;;;;;;;4970039;28;20226;-87
2023/01/20 07:04:23;;;;;;;30.67;20.73;;;;;;;;;;4980584;28;20233;-87
2023/01/20 07:06:49;;;;;;;24.50;20.50;;;;;;;;;;5003214;28;20230;-89
2023/01/20 07:09:17;;;;;;;25.90;19.63;;;;;;;;;;4963680;28;20210;-88
2023/01/20 07:11:43;;;;;;;22.43;19.73;;;;;;;;;;4957424;28;20297;-87
2023/01/20 07:14:09;;;;;;;25.17;19.83;;;;;;;;;;4960721;28;20222;-86
2023/01/20 07:16:34;;;;;;;25.07;21.17;;;;;;;;;;4952030;28;20305;-89
2023/01/20 07:19:03;;;;;;;23.27;19.30;;;;;;;;;;4977585;28;20725;-88
2023/01/20 07:21:33;;;;;;;27.93;20.90;;;;;;;;;;4976629;28;20226;-88
2023/01/20 07:24:00;;;;;;;24.93;20.73;;;;;;;;;;4930766;28;20602;-87
2023/01/20 07:26:30;;;;;;;26.00;22.53;;;;;;;;;;4930041;28;20252;-86
2023/01/20 07:28:58;;;;;;;23.17;19.70;;;;;;;;;;4947033;28;20607;-89
2023/01/20 07:31:27;;;;;;;28.33;20.27;;;;;;;;;;4943011;28;20226;-86
2023/01/20 07:33:55;;;;;;;23.03;19.80;;;;;;;;;;4935459;28;20317;-88
2023/01/20 07:36:20;;;;;;;23.27;20.57;;;;;;;;;;4962205;28;20217;-88
2023/01/20 07:38:49;;;;;;;22.20;19.53;;;;;;;;;;4973353;28;20229;-88
2023/01/20 07:41:15;;;;;;;23.67;19.47;;;;;;;;;;4963235;28;20230;-87
2023/01/20 07:43:44;;;;;;;23.20;19.43;;;;;;;;;;4961930;28;20230;-88
2023/01/20 07:46:12;;;;;;;24.03;20.77;;;;;;;;;;4967167;28;20237;-88
2023/01/20 07:48:38;;;;;;;24.97;19.73;;;;;;;;;;4957149;28;20230;-87
2023/01/20 07:51:05;;;;;;;25.47;19.20;;;;;;;;;;4971508;28;20202;-87
2023/01/20 07:53:32;;;;;;;24.27;19.30;;;;;;;;;;4942653;28;20227;-88
2023/01/20 07:56:04;;;;;;;21.77;19.37;;;;;;;;;;4974036;28;20240;-88
2023/01/20 07:58:30;;;;;;;21.93;18.67;;;;;;;;;;4971022;28;20261;-88
2023/01/20 08:00:55;;;;;;;23.57;18.10;;;;;;;;;;4933038;28;20226;-88
2023/01/20 08:03:25;;;;;;;23.77;19.77;;;;;;;;;;4974302;28;20312;-88
2023/01/20 08:05:53;;;;;;;36.63;25.73;;;;;;;;;;4951098;28;20226;-89
2023/01/20 08:08:19;;;;;;;38.37;28.93;;;;;;;;;;4964639;28;20252;-87
2023/01/20 08:10:46;;;;;;;28.50;25.50;;;;;;;;;;4966262;28;20243;-87
2023/01/20 08:13:11;;;;;;;25.97;21.93;;;;;;;;;;4933158;28;20253;-88
2023/01/20 08:15:37;;;;;;;22.87;20.40;;;;;;;;;;4934380;29;20704;-88
2023/01/20 08:18:09;;;;;;;19.70;17.70;;;;;;;;;;4933883;28;20223;-88
2023/01/20 08:20:39;;;;;;;19.30;17.20;;;;;;;;;;4980842;28;20222;-88
2023/01/20 08:23:04;;;;;;;27.50;18.50;;;;;;;;;;4980517;28;20245;-87
2023/01/20 08:25:30;;;;;;;19.90;17.13;;;;;;;;;;4948860;28;20242;-87
2023/01/20 08:27:55;;;;;;;19.97;17.13;;;;;;;;;;4959243;28;20227;-86
2023/01/20 08:30:21;;;;;;;23.40;17.73;;;;;;;;;;4979298;28;20222;-87
2023/01/20 08:32:46;;;;;;;19.87;15.93;;;;;;;;;;4971961;28;20230;-88
2023/01/20 08:35:12;;;;;;;20.83;16.37;;;;;;;;;;4963334;28;20218;-88
2023/01/20 08:37:45;;;;;;;20.97;15.93;;;;;;;;;;4979668;28;20284;-89
2023/01/20 08:40:14;;;;;;;18.73;15.67;;;;;;;;;;4962172;28;20312;-87
2023/01/20 08:42:39;;;;;;;18.57;16.50;;;;;;;;;;4944453;28;20254;-87
2023/01/20 08:45:08;;;;;;;18.07;15.00;;;;;;;;;;4929559;28;20582;-87
2023/01/20 08:47:38;;;;;;;17.63;14.90;;;;;;;;;;4942091;28;20270;-87
2023/01/20 08:50:05;;;;;;;17.67;15.30;;;;;;;;;;4932944;28;20210;-88
2023/01/20 08:52:30;;;;;;;18.13;15.80;;;;;;;;;;4979555;28;20291;-86
2023/01/20 08:54:57;;;;;;;18.23;16.33;;;;;;;;;;4964629;28;20230;-86
2023/01/20 08:57:26;;;;;;;18.47;15.80;;;;;;;;;;4947621;28;20230;-88
2023/01/20 09:02:57;;;;;;;22.40;17.70;;;;;;;;;;5004992;28;20224;-76
2023/01/20 09:05:26;;;;;;;19.93;16.90;;;;;;;;;;4986873;28;20298;-77
2023/01/20 09:07:56;;;;;;;23.00;17.20;;;;;;;;;;4975078;28;20226;-77
2023/01/20 09:10:24;;;;;;;21.83;15.90;;;;;;;;;;5004895;28;20218;-76
2023/01/20 09:12:52;;;;;;;18.20;16.27;;;;;;;;;;4971057;28;20617;-77
2023/01/20 09:15:22;;;;;;;17.07;15.37;;;;;;;;;;4957039;28;20222;-76
2023/01/20 09:17:50;;;;;;;17.37;15.43;;;;;;;;;;4959364;28;20222;-77
2023/01/20 09:20:21;;;;;;;17.63;15.07;;;;;;;;;;4995411;28;20728;-76
2023/01/20 09:22:49;;;;;;;16.53;14.77;;;;;;;;;;4991223;28;20238;-77
2023/01/20 09:25:17;;;;;;;17.40;14.33;;;;;;;;;;4990855;28;20600;-77
2023/01/20 09:27:48;;;;;;;19.50;14.47;;;;;;;;;;4952564;28;20685;-78
2023/01/20 09:30:18;;;;;;;16.07;13.40;;;;;;;;;;4994605;28;20621;-76
2023/01/20 09:32:45;;;;;;;13.40;11.30;;;;;;;;;;4992464;28;20217;-77
2023/01/20 09:35:14;;;;;;;12.93;11.57;;;;;;;;;;4995490;28;20238;-77
2023/01/20 09:44:02;;;;;;;12.40;11.20;;;;;;;;;;4997769;28;20233;-77
2023/01/20 09:46:42;;;;;;;13.63;12.10;;;;;;;;;;5000393;28;20297;-76
2023/01/20 09:55:00;;;;;;;12.27;11.03;;;;;;;;;;4989268;28;20796;-76
2023/01/20 09:57:28;;;;;;;13.83;10.83;;;;;;;;;;4986304;28;20701;-77
2023/01/20 10:00:03;;;;;;;15.17;11.43;;;;;;;;;;4999166;28;20233;-77
2023/01/20 10:02:38;;;;;;;12.60;11.30;;;;;;;;;;4956467;28;20267;-77
2023/01/20 10:05:11;;;;;;;12.03;10.60;;;;;;;;;;4980923;28;20220;-76
2023/01/20 10:07:58;;;;;;;12.50;11.17;;;;;;;;;;4964494;28;20225;-77
2023/01/20 10:10:39;;;;;;;15.00;11.50;;;;;;;;;;4977223;28;20222;-77
2023/01/20 10:13:22;;;;;;;13.63;11.03;;;;;;;;;;4988870;28;20816;-77
2023/01/20 10:15:58;;;;;;;18.00;11.70;;;;;;;;;;4985312;28;20230;-76
2023/01/20 10:18:47;;;;;;;14.33;12.83;;;;;;;;;;4999906;28;20316;-77
2023/01/20 10:21:21;;;;;;;15.87;14.27;;;;;;;;;;4978910;28;20229;-77
2023/01/20 10:23:57;;;;;;;15.20;13.47;;;;;;;;;;4994099;28;20230;-77
2023/01/20 10:26:44;;;;;;;13.17;11.77;;;;;;;;;;4975902;28;20222;-76
2023/01/20 10:29:16;;;;;;;13.33;11.67;;;;;;;;;;4977936;28;20225;-77
2023/01/20 10:31:47;;;;;;;14.37;12.70;;;;;;;;;;4983561;28;20320;-76
2023/01/20 10:34:22;;;;;;;13.90;12.40;;;;;;;;;;4995841;28;20248;-77
2023/01/20 10:37:08;;;;;;;12.20;10.97;;;;;;;;;;4996437;28;20225;-77
2023/01/20 10:39:37;;;;;;;15.87;11.60;;;;;;;;;;4991917;28;20261;-77
2023/01/20 10:42:13;;;;;;;15.13;13.23;;;;;;;;;;4993537;28;20250;-77
2023/01/20 10:44:42;;;;;;;12.53;11.27;;;;;;;;;;4978218;28;20281;-75
2023/01/20 10:47:23;;;;;;;12.60;11.30;;;;;;;;;;4997631;28;20217;-79
2023/01/20 10:49:57;;;;;;;16.43;13.30;;;;;;;;;;4993897;28;20233;-75
2023/01/20 10:53:05;;;;;;;12.47;11.17;;;;;;;;;;4991725;28;20258;-76
2023/01/20 10:55:59;;;;;;;13.23;11.47;;;;;;;;;;4990301;28;20312;-75
2023/01/20 10:58:30;;;;;;;12.30;11.03;;;;;;;;;;4990742;28;20226;-76
2023/01/20 11:01:00;;;;;;;13.37;11.70;;;;;;;;;;4993925;28;20279;-77
2023/01/20 11:03:38;;;;;;;13.67;11.03;;;;;;;;;;4981342;28;20229;-76
2023/01/20 11:06:04;;;;;;;14.37;10.70;;;;;;;;;;4980654;28;20223;-76
2023/01/20 11:08:31;;;;;;;13.43;11.20;;;;;;;;;;4966386;28;20652;-73
2023/01/20 11:11:22;;;;;;;12.80;10.63;;;;;;;;;;4994935;28;20229;-77
2023/01/20 11:13:50;;;;;;;11.90;10.60;;;;;;;;;;4983083;28;20229;-76
2023/01/20 11:16:41;;;;;;;12.87;10.43;;;;;;;;;;4992099;28;20693;-76
2023/01/20 11:19:15;;;;;;;10.97;9.53;;;;;;;;;;5014004;28;20233;-76
2023/01/20 11:21:42;;;;;;;12.83;11.40;;;;;;;;;;4996327;28;20343;-74
2023/01/20 11:24:41;;;;;;;12.47;10.23;;;;;;;;;;4993988;28;20222;-76
2023/01/20 11:27:13;;;;;;;12.17;9.97;;;;;;;;;;4993239;28;20248;-77
2023/01/20 11:29:50;;;;;;;11.90;10.73;;;;;;;;;;4989057;28;20226;-75
2023/01/20 11:32:24;;;;;;;12.93;11.10;;;;;;;;;;4981359;28;20239;-76
2023/01/20 11:34:54;;;;;;;11.90;10.67;;;;;;;;;;4997329;28;20643;-77
2023/01/20 11:37:32;;;;;;;11.43;10.33;;;;;;;;;;4992128;28;20264;-76
2023/01/20 11:40:24;;;;;;;10.97;9.87;;;;;;;;;;4992232;28;20791;-76
2023/01/20 11:42:57;;;;;;;14.00;10.53;;;;;;;;;;4995840;28;20224;-78
2023/01/20 11:45:34;;;;;;;11.73;10.37;;;;;;;;;;4992327;28;20296;-76
2023/01/20 11:48:23;;;;;;;12.53;10.77;;;;;;;;;;4988113;28;20404;-75
2023/01/20 11:50:49;;;;;;;11.40;9.40;;;;;;;;;;5003233;28;20233;-75
2023/01/20 11:53:18;;;;;;;12.77;10.03;;;;;;;;;;4994067;28;20245;-75
2023/01/20 11:56:02;;;;;;;11.97;10.30;;;;;;;;;;4994869;28;20225;-74
2023/01/20 11:58:49;;;;;;;13.20;10.03;;;;;;;;;;4974866;28;20233;-77
2023/01/20 12:01:28;;;;;;;11.93;10.00;;;;;;;;;;4987044;28;20246;-75
2023/01/20 12:03:56;;;;;;;11.27;9.53;;;;;;;;;;4975668;28;20221;-76
2023/01/20 12:07:05;;;;;;;9.80;8.80;;;;;;;;;;4995632;28;20222;-75
2023/01/20 12:09:48;;;;;;;14.40;10.03;;;;;;;;;;4982225;28;20257;-75
2023/01/20 12:12:25;;;;;;;11.00;8.70;;;;;;;;;;4976585;28;20237;-74
2023/01/20 12:15:25;;;;;;;10.97;9.13;;;;;;;;;;4977454;28;20428;-75
2023/01/20 12:18:07;;;;;;;9.27;8.20;;;;;;;;;;5003144;28;20228;-75
2023/01/20 12:20:38;;;;;;;9.90;8.90;;;;;;;;;;4991220;28;20260;-77
2023/01/20 12:23:23;;;;;;;8.60;7.73;;;;;;;;;;4986569;28;20240;-75
2023/01/20 12:25:57;;;;;;;12.37;8.63;;;;;;;;;;4989097;28;20221;-76
2023/01/20 12:28:39;;;;;;;9.43;8.27;;;;;;;;;;4981623;28;20308;-75
2023/01/20 12:31:09;;;;;;;9.80;8.80;;;;;;;;;;4979532;28;20256;-76
2023/01/20 12:33:42;;;;;;;8.37;7.50;;;;;;;;;;4971083;28;20233;-77
2023/01/20 12:36:23;;;;;;;9.63;8.63;;;;;;;;;;4975634;28;20244;-77
2023/01/20 12:39:11;;;;;;;10.47;9.40;;;;;;;;;;4987882;28;20234;-76
2023/01/20 12:42:14;;;;;;;9.43;8.37;;;;;;;;;;4988292;28;20242;-76
2023/01/20 12:45:08;;;;;;;9.57;8.57;;;;;;;;;;4989322;28;20283;-75
2023/01/20 12:47:46;;;;;;;11.37;8.10;;;;;;;;;;4985445;28;20240;-75
2023/01/20 12:50:42;;;;;;;8.80;7.50;;;;;;;;;;4989474;28;20731;-75
2023/01/20 12:53:37;;;;;;;9.73;8.50;;;;;;;;;;4990273;28;20223;-76
2023/01/20 12:56:20;;;;;;;10.33;8.20;;;;;;;;;;5006779;28;20221;-76
2023/01/20 12:59:04;;;;;;;10.70;8.90;;;;;;;;;;4989363;28;20221;-75
2023/01/20 13:02:05;;;;;;;9.30;8.30;;;;;;;;;;5005315;28;20225;-75
2023/01/20 13:04:58;;;;;;;10.63;8.37;;;;;;;;;;4975679;28;20252;-76
2023/01/20 13:07:48;;;;;;;13.57;8.33;;;;;;;;;;4990317;28;20252;-75
2023/01/20 13:10:26;;;;;;;9.30;8.27;;;;;;;;;;4991055;28;20245;-76
2023/01/20 13:13:00;;;;;;;14.90;12.13;;;;;;;;;;4990255;28;20419;-75
2023/01/20 13:15:32;;;;;;;22.87;14.60;;;;;;;;;;4993487;28;20770;-75
2023/01/20 13:18:20;;;;;;;25.63;18.50;;;;;;;;;;4957632;28;20225;-75
2023/01/20 13:20:49;;;;;;;13.57;10.87;;;;;;;;;;4986908;28;20221;-76
2023/01/20 13:23:36;;;;;;;9.57;8.67;;;;;;;;;;4958563;28;20241;-75
2023/01/20 13:26:04;;;;;;;9.63;8.53;;;;;;;;;;4994932;28;20228;-75
2023/01/20 13:28:30;;;;;;;11.93;8.73;;;;;;;;;;4959823;28;20313;-75
2023/01/20 13:30:59;;;;;;;10.07;8.60;;;;;;;;;;4990154;28;20217;-77
2023/01/20 13:33:40;;;;;;;9.60;8.60;;;;;;;;;;4990839;28;20225;-75
2023/01/20 13:36:15;;;;;;;11.47;9.40;;;;;;;;;;4989872;28;20241;-76
2023/01/20 13:38:44;;;;;;;10.50;9.20;;;;;;;;;;4990725;28;20260;-76
2023/01/20 13:41:10;;;;;;;11.07;8.70;;;;;;;;;;4993731;28;20233;-75
2023/01/20 13:43:41;;;;;;;9.67;8.70;;;;;;;;;;4972950;28;20233;-76
2023/01/20 13:46:07;;;;;;;12.03;8.47;;;;;;;;;;4994161;28;20247;-75
2023/01/20 13:48:34;;;;;;;13.00;8.67;;;;;;;;;;4988813;28;20228;-76
2023/01/20 13:51:20;;;;;;;9.30;8.40;;;;;;;;;;4953815;28;20709;-76
2023/01/20 13:53:49;;;;;;;10.70;8.70;;;;;;;;;;4991678;28;20327;-76
2023/01/20 13:56:25;;;;;;;9.23;8.20;;;;;;;;;;4975730;28;20779;-76
2023/01/20 13:58:53;;;;;;;9.73;8.73;;;;;;;;;;4984023;28;20290;-75
2023/01/20 14:01:35;;;;;;;9.60;8.40;;;;;;;;;;4976015;28;20233;-76
2023/01/20 14:04:05;;;;;;;10.53;8.87;;;;;;;;;;4967185;28;20240;-76
2023/01/20 14:06:43;;;;;;;24.07;20.67;;;;;;;;;;4977911;28;20229;-76
2023/01/20 14:09:10;;;;;;;13.97;12.30;;;;;;;;;;4988984;28;20228;-77
2023/01/20 14:11:38;;;;;;;12.63;10.33;;;;;;;;;;4992267;28;20244;-76
2023/01/20 14:14:04;;;;;;;10.33;9.33;;;;;;;;;;4953876;28;20237;-76
2023/01/20 14:16:36;;;;;;;10.57;9.17;;;;;;;;;;4993292;28;20229;-77
2023/01/20 14:19:16;;;;;;;11.23;9.60;;;;;;;;;;4987626;28;20239;-76
2023/01/20 14:21:44;;;;;;;11.23;9.23;;;;;;;;;;4976789;28;20237;-75
2023/01/20 14:24:51;;;;;;;12.13;10.70;;;;;;;;;;4976455;28;20244;-74
2023/01/20 14:27:26;;;;;;;10.93;9.00;;;;;;;;;;4974639;28;20220;-74
2023/01/20 14:29:55;;;;;;;15.63;12.20;;;;;;;;;;4957447;28;20225;-75
2023/01/20 14:32:27;;;;;;;11.80;10.60;;;;;;;;;;4975270;28;20221;-76
2023/01/20 14:34:53;;;;;;;13.87;12.03;;;;;;;;;;4988891;28;20232;-77
2023/01/20 14:37:28;;;;;;;13.87;12.20;;;;;;;;;;4956743;28;20214;-77
2023/01/20 14:39:58;;;;;;;12.30;9.57;;;;;;;;;;4989142;28;20229;-76
2023/01/20 14:42:29;;;;;;;12.30;9.40;;;;;;;;;;4954563;28;20584;-76
2023/01/20 14:44:58;;;;;;;9.67;8.63;;;;;;;;;;4979019;28;20728;-76
2023/01/20 14:47:27;;;;;;;10.43;8.80;;;;;;;;;;4993509;28;21445;-76
2023/01/20 14:49:53;;;;;;;11.37;9.57;;;;;;;;;;4960963;28;20256;-77
2023/01/20 14:52:28;;;;;;;11.17;10.07;;;;;;;;;;4973841;28;20236;-75
2023/01/20 14:54:57;;;;;;;11.20;10.00;;;;;;;;;;4964442;28;20225;-75
2023/01/20 14:57:29;;;;;;;10.33;9.23;;;;;;;;;;4985495;28;20316;-79
2023/01/20 15:00:19;;;;;;;11.37;10.23;;;;;;;;;;4993083;28;20233;-77
2023/01/20 15:03:11;;;;;;;10.20;8.67;;;;;;;;;;4987838;28;20225;-77
2023/01/20 15:05:41;;;;;;;9.10;8.10;;;;;;;;;;4991253;28;20217;-76